Time;durP1;ratioP1;P1;durP2;ratioP2;P2;SDS_P1;SDS_P2;PMS_P1;PMS_P2;Temp;Humidity;BMP_temperature;BMP_pressure;BME280_temperature;BME280_humidity;BME280_pressure;Samples;Min_cycle;Max_cycle;Signal;HPM_P1;HPM_P2
2021/05/24 00:00:06;;;;;;;4.03;2.67;;;11.20;92.70;;;;;;5053756;28;20070;-74
2021/05/24 00:02:32;;;;;;;5.07;2.42;;;11.20;92.40;;;;;;5036346;28;20037;-74
2021/05/24 00:04:57;;;;;;;3.45;2.47;;;11.20;92.40;;;;;;5054224;28;20121;-74
2021/05/24 00:07:23;;;;;;;5.10;2.55;;;11.20;92.00;;;;;;5036018;28;20037;-74
2021/05/24 00:09:49;;;;;;;5.75;2.38;;;11.30;92.10;;;;;;5053275;28;20033;-74
2021/05/24 00:12:15;;;;;;;6.78;2.97;;;11.30;92.10;;;;;;5053739;28;20044;-74
2021/05/24 00:14:41;;;;;;;6.43;2.88;;;11.30;92.10;;;;;;5053829;28;20469;-74
2021/05/24 00:17:07;;;;;;;6.57;2.47;;;11.30;92.10;;;;;;5053722;28;20072;-74
2021/05/24 00:19:33;;;;;;;7.30;2.88;;;11.30;92.10;;;;;;5052796;28;20126;-74
2021/05/24 00:21:58;;;;;;;5.55;2.40;;;11.20;92.20;;;;;;5053857;28;20095;-74
2021/05/24 00:24:24;;;;;;;4.03;2.17;;;11.20;92.30;;;;;;5053458;28;20037;-74
2021/05/24 00:26:50;;;;;;;6.00;3.40;;;11.20;92.20;;;;;;5053524;28;20095;-74
2021/05/24 00:29:19;;;;;;;7.00;3.13;;;11.20;92.30;;;;;;5053082;28;20068;-74
2021/05/24 00:31:45;;;;;;;5.50;3.00;;;11.20;92.60;;;;;;5053487;28;20075;-74
2021/05/24 00:34:11;;;;;;;5.20;2.63;;;11.20;92.50;;;;;;5053407;28;20041;-74
2021/05/24 00:36:37;;;;;;;4.93;2.60;;;11.20;92.60;;;;;;5053992;28;20037;-74
2021/05/24 00:39:07;;;;;;;7.07;2.50;;;11.10;92.70;;;;;;5052891;28;20040;-74
2021/05/24 00:41:35;;;;;;;6.15;2.75;;;11.10;92.70;;;;;;5053463;28;20040;-74
2021/05/24 00:44:01;;;;;;;4.57;2.72;;;11.10;92.70;;;;;;5053578;28;20040;-74
2021/05/24 00:46:27;;;;;;;5.65;2.75;;;11.20;92.70;;;;;;5053120;28;20408;-74
2021/05/24 00:48:53;;;;;;;6.03;2.55;;;11.10;92.80;;;;;;5054886;28;20045;-74
2021/05/24 00:51:18;;;;;;;4.47;2.45;;;11.10;93.10;;;;;;5057175;28;20439;-74
2021/05/24 00:53:44;;;;;;;5.10;2.80;;;11.10;93.00;;;;;;5057226;28;20472;-74
2021/05/24 00:56:10;;;;;;;8.88;2.83;;;11.10;93.20;;;;;;5057406;28;20090;-74
2021/05/24 00:58:36;;;;;;;4.75;2.70;;;11.10;93.40;;;;;;5057243;28;20037;-74
2021/05/24 01:01:02;;;;;;;5.85;3.13;;;11.10;93.60;;;;;;5056930;28;20043;-74
2021/05/24 01:03:28;;;;;;;5.10;2.70;;;11.10;93.80;;;;;;5056912;28;20044;-74
2021/05/24 01:05:54;;;;;;;4.55;3.08;;;11.00;94.00;;;;;;5056974;28;20080;-74
2021/05/24 01:08:19;;;;;;;5.20;3.35;;;11.00;94.20;;;;;;5057105;28;20147;-74
2021/05/24 01:10:46;;;;;;;4.93;3.28;;;11.00;94.60;;;;;;5056476;28;20127;-74
2021/05/24 01:13:13;;;;;;;7.18;3.80;;;10.90;94.90;;;;;;5057198;28;20037;-74
2021/05/24 01:15:39;;;;;;;5.78;2.90;;;10.90;95.40;;;;;;5057446;28;20037;-74
2021/05/24 01:18:06;;;;;;;6.07;3.20;;;10.80;95.80;;;;;;5057108;28;20048;-74
2021/05/24 01:20:31;;;;;;;6.78;3.00;;;10.80;95.80;;;;;;5056366;28;20041;-74
2021/05/24 01:25:31;;;;;;;5.50;3.42;;;10.80;96.10;;;;;;5057077;28;20041;-74
2021/05/24 01:27:58;;;;;;;7.35;3.72;;;10.80;95.90;;;;;;5057179;28;20048;-74
2021/05/24 01:30:23;;;;;;;5.95;2.80;;;10.80;96.00;;;;;;5056024;28;20041;-74
2021/05/24 01:32:50;;;;;;;4.55;3.03;;;10.80;95.80;;;;;;5057098;28;20037;-74
2021/05/24 01:35:16;;;;;;;6.85;3.88;;;10.80;96.00;;;;;;5056551;28;20381;-74
2021/05/24 01:37:43;;;;;;;4.40;2.67;;;10.70;95.90;;;;;;5056454;28;20118;-74
2021/05/24 01:40:09;;;;;;;4.43;3.20;;;10.80;95.80;;;;;;5056353;28;20041;-74
2021/05/24 01:42:35;;;;;;;5.63;3.00;;;10.80;95.90;;;;;;5056547;28;20069;-74
2021/05/24 01:45:05;;;;;;;4.68;3.30;;;10.80;95.80;;;;;;5056794;28;20090;-74
2021/05/24 01:47:32;;;;;;;6.32;3.72;;;10.70;96.00;;;;;;5056215;28;20040;-74
2021/05/24 01:49:57;;;;;;;6.25;3.65;;;10.80;96.00;;;;;;5037987;28;20037;-74
2021/05/24 01:52:23;;;;;;;7.15;3.72;;;10.70;96.10;;;;;;5056305;28;20045;-74
2021/05/24 01:54:49;;;;;;;6.75;4.07;;;10.70;96.20;;;;;;5056568;28;20476;-74
2021/05/24 01:57:15;;;;;;;6.47;3.45;;;10.70;96.20;;;;;;5056574;28;20052;-74
2021/05/24 01:59:41;;;;;;;5.90;3.92;;;10.70;96.10;;;;;;5054932;28;20047;-74
2021/05/24 02:02:07;;;;;;;7.07;3.42;;;10.70;96.20;;;;;;5055598;28;20040;-74
2021/05/24 02:04:36;;;;;;;8.50;3.67;;;10.70;96.10;;;;;;5056252;28;20091;-74
2021/05/24 02:07:03;;;;;;;4.57;3.28;;;10.70;96.00;;;;;;5055781;28;20056;-74
2021/05/24 02:09:29;;;;;;;6.65;3.80;;;10.80;95.70;;;;;;5055311;28;20029;-74
2021/05/24 02:11:55;;;;;;;3.75;2.90;;;10.80;95.60;;;;;;5055655;28;20389;-74
2021/05/24 02:14:21;;;;;;;7.25;3.53;;;10.80;95.50;;;;;;5055656;28;20090;-74
2021/05/24 02:16:49;;;;;;;4.18;3.00;;;10.80;95.20;;;;;;5056002;28;20102;-74
2021/05/24 02:19:17;;;;;;;4.20;3.25;;;10.90;95.10;;;;;;5037638;28;20076;-74
2021/05/24 02:21:43;;;;;;;8.02;2.95;;;10.90;95.10;;;;;;5055372;28;20044;-74
2021/05/24 02:24:10;;;;;;;6.22;3.35;;;10.90;95.20;;;;;;5055960;28;20098;-74
2021/05/24 02:26:37;;;;;;;5.53;3.25;;;10.90;95.20;;;;;;5056072;28;20099;-74
2021/05/24 02:29:04;;;;;;;5.20;2.88;;;10.80;95.50;;;;;;5055252;28;20033;-74
2021/05/24 02:31:30;;;;;;;5.25;2.95;;;10.90;95.60;;;;;;5055418;28;20068;-74
2021/05/24 02:33:56;;;;;;;5.68;2.80;;;10.80;95.80;;;;;;5055367;28;20484;-74
2021/05/24 02:36:24;;;;;;;7.78;2.92;;;10.80;95.90;;;;;;5055634;28;20044;-74
2021/05/24 02:38:50;;;;;;;5.80;2.97;;;10.70;96.00;;;;;;5055163;28;20037;-74
2021/05/24 02:41:16;;;;;;;7.18;4.13;;;10.70;96.20;;;;;;5055236;28;20107;-75
2021/05/24 02:43:42;;;;;;;4.00;2.97;;;10.70;96.40;;;;;;5055024;28;20037;-74
2021/05/24 02:46:08;;;;;;;5.18;3.38;;;10.70;96.50;;;;;;5055220;28;20037;-74
2021/05/24 02:48:34;;;;;;;5.30;3.60;;;10.70;96.70;;;;;;5054917;28;20082;-74
2021/05/24 02:51:00;;;;;;;4.55;2.58;;;10.70;97.00;;;;;;5055388;28;20392;-74
2021/05/24 02:53:26;;;;;;;7.45;2.97;;;10.70;96.60;;;;;;5054886;28;20047;-74
2021/05/24 02:55:52;;;;;;;6.70;3.22;;;10.70;96.60;;;;;;5037110;28;20037;-74
2021/05/24 02:58:17;;;;;;;6.15;3.15;;;10.70;96.60;;;;;;5054854;28;20036;-74
2021/05/24 03:00:43;;;;;;;5.07;3.22;;;10.70;96.60;;;;;;5054719;28;20036;-74
2021/05/24 03:03:11;;;;;;;7.43;3.60;;;10.70;96.40;;;;;;5054747;28;20041;-74
2021/05/24 03:05:37;;;;;;;4.78;2.40;;;10.70;96.50;;;;;;5055236;28;20037;-74
2021/05/24 03:08:03;;;;;;;4.18;2.92;;;10.70;96.40;;;;;;5054693;28;20039;-74
2021/05/24 03:10:28;;;;;;;3.42;2.83;;;10.70;96.30;;;;;;5054284;28;20040;-74
2021/05/24 03:12:55;;;;;;;10.48;3.45;;;10.70;96.40;;;;;;5054216;28;20033;-74
2021/05/24 03:15:21;;;;;;;6.93;2.53;;;10.70;96.60;;;;;;5054408;28;20129;-74
2021/05/24 03:17:47;;;;;;;5.35;2.75;;;10.70;96.50;;;;;;5054745;28;20059;-74
2021/05/24 03:20:16;;;;;;;5.47;2.80;;;10.70;96.60;;;;;;5054114;28;20037;-74
2021/05/24 03:22:43;;;;;;;4.47;2.33;;;10.70;96.70;;;;;;5054260;28;20091;-74
2021/05/24 03:25:10;;;;;;;8.35;3.40;;;10.70;96.40;;;;;;5054261;28;20396;-74
2021/05/24 03:27:36;;;;;;;4.35;2.50;;;10.80;96.30;;;;;;5054648;28;20043;-74
2021/05/24 03:30:04;;;;;;;3.67;3.15;;;10.80;96.20;;;;;;5054031;28;20045;-74
2021/05/24 03:32:29;;;;;;;3.92;3.03;;;10.80;96.00;;;;;;5054146;28;20033;-74
2021/05/24 03:34:55;;;;;;;6.43;3.20;;;10.80;95.60;;;;;;5054406;28;20044;-74
2021/05/24 03:37:21;;;;;;;6.28;2.53;;;10.80;95.40;;;;;;5054629;28;20041;-74
2021/05/24 03:39:47;;;;;;;6.50;3.22;;;10.80;95.50;;;;;;5053892;28;20052;-74
2021/05/24 03:42:12;;;;;;;6.00;3.10;;;10.80;95.80;;;;;;5054425;28;20036;-74
2021/05/24 03:44:42;;;;;;;4.97;2.78;;;10.80;95.80;;;;;;5036197;28;20107;-74
2021/05/24 03:47:08;;;;;;;3.80;2.60;;;10.70;96.00;;;;;;5054488;28;20048;-74
2021/05/24 03:49:34;;;;;;;7.65;3.20;;;10.70;96.00;;;;;;5035710;28;20037;-74
2021/05/24 03:51:59;;;;;;;3.38;2.45;;;10.70;96.20;;;;;;5053940;28;20045;-74
2021/05/24 03:54:25;;;;;;;4.32;2.40;;;10.70;96.30;;;;;;5054208;28;20037;-74
2021/05/24 03:56:51;;;;;;;6.47;3.05;;;10.70;96.10;;;;;;5053895;28;20041;-74
2021/05/24 03:59:17;;;;;;;6.93;2.63;;;10.70;96.00;;;;;;5053837;28;20128;-74
2021/05/24 04:01:42;;;;;;;5.88;2.67;;;10.70;96.00;;;;;;5054237;28;20044;-74
2021/05/24 04:04:08;;;;;;;4.57;2.38;;;10.70;96.10;;;;;;5054085;28;20037;-74
2021/05/24 04:06:35;;;;;;;3.15;2.45;;;10.80;95.80;;;;;;5054107;28;20041;-74
2021/05/24 04:09:02;;;;;;;3.78;2.45;;;10.80;95.70;;;;;;5053843;28;20159;-74
2021/05/24 04:11:28;;;;;;;5.40;2.35;;;10.80;95.50;;;;;;5053620;28;20072;-74
2021/05/24 04:13:54;;;;;;;3.15;2.25;;;10.80;95.40;;;;;;5035726;28;20114;-74
2021/05/24 04:16:21;;;;;;;5.75;2.42;;;10.80;95.40;;;;;;5053819;28;20465;-74
2021/05/24 04:18:48;;;;;;;2.50;2.00;;;10.90;95.50;;;;;;5053159;28;20052;-74
2021/05/24 04:21:15;;;;;;;2.75;1.95;;;10.80;95.60;;;;;;5053206;28;20503;-74
2021/05/24 04:23:41;;;;;;;4.10;2.00;;;10.80;95.50;;;;;;5052533;28;20037;-74
2021/05/24 04:26:08;;;;;;;3.22;2.20;;;10.90;95.60;;;;;;5053279;28;20063;-74
2021/05/24 04:28:34;;;;;;;6.85;2.33;;;10.80;95.70;;;;;;5053279;28;20037;-74
2021/05/24 04:31:00;;;;;;;6.13;2.17;;;10.90;95.70;;;;;;5053017;28;20037;-74
2021/05/24 04:33:26;;;;;;;4.47;2.53;;;10.90;95.80;;;;;;5053238;28;20037;-74
2021/05/24 04:35:51;;;;;;;5.75;2.20;;;10.80;95.80;;;;;;5053866;28;20029;-74
2021/05/24 04:38:18;;;;;;;6.70;2.60;;;10.80;95.80;;;;;;5053201;28;20099;-74
2021/05/24 04:40:44;;;;;;;3.72;1.80;;;10.80;95.90;;;;;;5053071;28;20484;-74
2021/05/24 04:43:10;;;;;;;6.25;1.90;;;10.80;95.40;;;;;;5053680;28;20044;-74
2021/05/24 04:45:35;;;;;;;7.25;2.50;;;10.90;95.60;;;;;;5053084;28;20532;-74
2021/05/24 04:48:01;;;;;;;7.60;2.72;;;10.80;95.70;;;;;;5053317;28;20113;-74
2021/05/24 04:50:27;;;;;;;6.57;1.90;;;10.90;95.60;;;;;;5052678;28;20553;-74
2021/05/24 04:52:53;;;;;;;5.93;1.80;;;10.90;95.60;;;;;;5053507;28;20059;-74
2021/05/24 04:55:20;;;;;;;8.98;2.97;;;10.90;95.80;;;;;;5053350;28;20043;-74
2021/05/24 04:57:46;;;;;;;3.65;2.40;;;10.90;95.80;;;;;;5053675;28;20037;-74
2021/05/24 05:00:13;;;;;;;9.48;3.10;;;10.90;96.00;;;;;;5052726;28;20044;-74
2021/05/24 05:02:40;;;;;;;3.53;2.00;;;10.90;96.10;;;;;;5053402;28;20179;-74
2021/05/24 05:05:08;;;;;;;5.68;2.00;;;10.90;96.20;;;;;;5053639;28;20468;-74
2021/05/24 05:07:34;;;;;;;5.28;2.63;;;10.90;96.30;;;;;;5053011;28;20047;-74
2021/05/24 05:10:01;;;;;;;3.20;1.98;;;10.90;96.40;;;;;;5052925;28;20041;-74
2021/05/24 05:12:28;;;;;;;4.68;1.90;;;10.90;96.50;;;;;;5053248;28;20045;-74
2021/05/24 05:14:54;;;;;;;3.53;2.10;;;10.90;96.60;;;;;;5053470;28;20069;-74
2021/05/24 05:17:20;;;;;;;4.25;1.60;;;10.90;96.80;;;;;;5053455;28;20562;-74
2021/05/24 05:19:45;;;;;;;3.35;1.52;;;10.90;96.70;;;;;;5052702;28;20076;-74
2021/05/24 05:22:11;;;;;;;2.60;1.80;;;10.90;96.70;;;;;;5053012;28;20041;-74
2021/05/24 05:24:37;;;;;;;3.50;1.52;;;10.90;96.80;;;;;;5052968;28;20480;-74
2021/05/24 05:27:03;;;;;;;4.25;1.73;;;10.90;97.00;;;;;;5053210;28;20040;-74
2021/05/24 05:29:29;;;;;;;2.70;1.60;;;10.90;97.00;;;;;;5052366;28;20033;-74
2021/05/24 05:31:54;;;;;;;1.98;1.48;;;10.90;97.00;;;;;;5052705;28;20044;-74
2021/05/24 05:34:20;;;;;;;2.80;1.65;;;11.00;96.90;;;;;;5053514;28;20392;-74
2021/05/24 05:36:46;;;;;;;2.97;1.58;;;11.00;97.00;;;;;;5056880;28;20436;-74
2021/05/24 05:39:13;;;;;;;3.85;1.35;;;11.00;97.10;;;;;;5056092;28;20094;-74
2021/05/24 05:41:38;;;;;;;5.57;1.85;;;11.00;97.20;;;;;;5056824;28;20033;-74
2021/05/24 05:44:05;;;;;;;5.57;1.50;;;11.10;97.20;;;;;;5056714;28;20040;-74
2021/05/24 05:46:32;;;;;;;2.78;1.63;;;11.10;97.30;;;;;;5056746;28;20041;-75
2021/05/24 05:48:58;;;;;;;4.35;1.75;;;11.20;97.10;;;;;;5056379;28;20076;-74
2021/05/24 05:51:25;;;;;;;2.90;1.70;;;11.20;97.20;;;;;;5056130;28;20086;-74
2021/05/24 05:53:52;;;;;;;3.42;1.70;;;11.20;97.30;;;;;;5056062;28;20037;-74
2021/05/24 05:56:18;;;;;;;2.25;1.40;;;11.30;97.30;;;;;;5056018;28;20116;-74
2021/05/24 05:58:43;;;;;;;3.13;1.38;;;11.30;97.20;;;;;;5056139;28;20460;-74
2021/05/24 06:01:09;;;;;;;3.45;1.42;;;11.40;97.40;;;;;;5056469;28;20041;-74
2021/05/24 06:03:35;;;;;;;3.25;1.50;;;11.40;97.20;;;;;;5056488;28;20388;-74
2021/05/24 06:06:01;;;;;;;3.35;1.80;;;11.50;97.30;;;;;;5055971;28;20082;-74
2021/05/24 06:08:27;;;;;;;2.72;1.55;;;11.50;97.40;;;;;;5055958;28;20044;-74
2021/05/24 06:10:53;;;;;;;4.63;1.50;;;11.50;97.30;;;;;;5055576;28;20048;-74
2021/05/24 06:13:18;;;;;;;4.30;1.50;;;11.60;97.30;;;;;;5056219;28;20047;-74
2021/05/24 06:15:44;;;;;;;1.73;1.40;;;11.60;97.10;;;;;;5056266;28;20118;-74
2021/05/24 06:18:10;;;;;;;5.07;1.63;;;11.70;97.00;;;;;;5055742;28;20033;-74
2021/05/24 06:20:35;;;;;;;4.22;1.40;;;11.70;96.80;;;;;;5055154;28;20206;-74
2021/05/24 06:23:01;;;;;;;4.82;1.50;;;11.70;96.80;;;;;;5055713;28;20044;-74
2021/05/24 06:25:27;;;;;;;2.97;1.60;;;11.70;96.90;;;;;;5055813;28;20052;-74
2021/05/24 06:27:53;;;;;;;3.17;1.67;;;11.80;97.00;;;;;;5055333;28;20037;-74
2021/05/24 06:30:18;;;;;;;3.22;1.90;;;11.90;97.00;;;;;;5055521;28;20037;-74
2021/05/24 06:32:45;;;;;;;2.40;1.38;;;11.90;96.90;;;;;;5055314;28;20099;-74
2021/05/24 06:35:11;;;;;;;3.17;1.58;;;12.00;97.00;;;;;;5055426;28;20041;-74
2021/05/24 06:37:37;;;;;;;3.25;1.65;;;12.10;96.90;;;;;;5055619;28;20041;-74
2021/05/24 06:40:05;;;;;;;3.17;1.67;;;12.10;97.00;;;;;;5055403;28;20053;-74
2021/05/24 06:42:31;;;;;;;3.83;2.20;;;12.20;96.90;;;;;;5055673;28;20033;-74
2021/05/24 06:44:57;;;;;;;6.68;1.52;;;12.20;97.10;;;;;;5037381;28;20049;-74
2021/05/24 06:47:23;;;;;;;5.45;1.42;;;12.30;97.00;;;;;;5054694;28;20060;-74
2021/05/24 06:49:50;;;;;;;4.85;1.92;;;12.40;96.80;;;;;;5054839;28;20435;-74
2021/05/24 06:52:16;;;;;;;3.25;1.50;;;12.50;96.80;;;;;;5055317;28;20037;-74
2021/05/24 06:54:42;;;;;;;3.92;1.67;;;12.50;96.70;;;;;;5037522;28;20106;-74
2021/05/24 06:57:07;;;;;;;3.38;1.50;;;12.60;96.80;;;;;;5054865;28;20045;-74
2021/05/24 06:59:35;;;;;;;3.30;1.83;;;12.70;96.50;;;;;;5054978;28;20481;-74
2021/05/24 07:02:01;;;;;;;2.53;1.40;;;12.80;96.50;;;;;;5055021;28;20037;-74
2021/05/24 07:04:28;;;;;;;3.70;1.80;;;13.00;96.60;;;;;;5054947;28;20186;-74
2021/05/24 07:06:54;;;;;;;4.50;1.50;;;13.10;96.40;;;;;;5054660;28;20037;-74
2021/05/24 07:09:20;;;;;;;3.35;1.38;;;13.20;96.10;;;;;;5036583;28;20073;-74
2021/05/24 07:11:46;;;;;;;4.85;1.98;;;13.30;95.70;;;;;;5054857;28;20037;-74
2021/05/24 07:14:12;;;;;;;2.75;1.48;;;13.50;95.70;;;;;;5055262;28;20510;-74
2021/05/24 07:16:38;;;;;;;4.00;1.30;;;13.50;95.00;;;;;;5054514;28;20111;-74
2021/05/24 07:19:04;;;;;;;2.47;1.50;;;13.60;94.70;;;;;;5054234;28;20098;-74
2021/05/24 07:21:29;;;;;;;3.92;1.20;;;13.70;94.60;;;;;;5054592;28;20033;-74
2021/05/24 07:23:55;;;;;;;3.70;1.40;;;13.80;94.50;;;;;;5054756;28;20044;-74
2021/05/24 07:26:21;;;;;;;4.10;1.48;;;13.90;94.20;;;;;;5054331;28;20524;-73
2021/05/24 07:28:47;;;;;;;2.40;1.05;;;14.00;94.20;;;;;;5054112;28;20045;-74
2021/05/24 07:31:12;;;;;;;2.75;1.35;;;14.20;93.90;;;;;;5054113;28;20052;-74
2021/05/24 07:33:38;;;;;;;3.33;1.40;;;14.50;93.70;;;;;;5054299;28;20033;-74
2021/05/24 07:36:04;;;;;;;3.35;1.60;;;14.70;93.40;;;;;;5054379;28;20048;-74
2021/05/24 07:38:30;;;;;;;4.38;1.15;;;15.00;93.30;;;;;;5054161;28;20037;-74
2021/05/24 07:40:56;;;;;;;3.60;1.20;;;15.30;93.10;;;;;;5054423;28;20049;-74
2021/05/24 07:43:22;;;;;;;2.97;1.50;;;15.40;92.40;;;;;;5054181;28;20041;-74
2021/05/24 07:45:47;;;;;;;3.53;1.08;;;15.50;92.00;;;;;;5054688;28;20048;-74
2021/05/24 07:48:13;;;;;;;4.85;1.60;;;15.60;92.20;;;;;;5053960;28;20033;-74
2021/05/24 07:50:39;;;;;;;4.88;1.35;;;15.60;91.80;;;;;;5053427;28;20040;-74
2021/05/24 07:53:04;;;;;;;4.07;1.15;;;15.70;91.60;;;;;;5054221;28;20474;-74
2021/05/24 07:55:30;;;;;;;2.78;1.25;;;15.70;92.00;;;;;;5053680;28;20560;-74
2021/05/24 07:57:56;;;;;;;4.28;1.20;;;15.70;91.60;;;;;;5054293;28;20043;-74
2021/05/24 08:00:25;;;;;;;5.10;1.33;;;15.60;91.70;;;;;;5053474;28;20037;-74
2021/05/24 08:02:51;;;;;;;6.95;1.50;;;15.50;91.90;;;;;;5054196;28;20115;-73
2021/05/24 08:05:17;;;;;;;5.88;1.73;;;15.50;90.50;;;;;;5053956;28;20036;-74
2021/05/24 08:07:44;;;;;;;5.47;0.98;;;15.50;88.50;;;;;;5053568;28;20504;-74
2021/05/24 08:10:10;;;;;;;2.90;0.90;;;15.50;89.20;;;;;;5053079;28;20044;-74
2021/05/24 08:12:40;;;;;;;4.63;0.98;;;15.50;88.70;;;;;;5053384;28;20086;-74
2021/05/24 08:15:07;;;;;;;2.10;1.00;;;15.40;90.30;;;;;;5053288;28;20040;-74
2021/05/24 08:17:33;;;;;;;2.42;0.90;;;15.40;89.00;;;;;;5053373;28;20405;-74
2021/05/24 08:19:59;;;;;;;3.15;1.20;;;15.40;88.80;;;;;;5053184;28;20053;-74
2021/05/24 08:22:24;;;;;;;7.55;1.83;;;15.40;89.20;;;;;;5053331;28;20041;-74
2021/05/24 08:24:51;;;;;;;2.78;1.10;;;15.40;88.80;;;;;;5053968;28;20112;-74
2021/05/24 08:27:17;;;;;;;3.15;1.00;;;15.40;89.40;;;;;;5053382;28;20485;-75
2021/05/24 08:29:43;;;;;;;2.25;1.13;;;15.50;88.20;;;;;;5052735;28;20040;-75
2021/05/24 08:32:08;;;;;;;4.25;0.90;;;15.70;88.30;;;;;;5053447;28;20098;-75
2021/05/24 08:34:34;;;;;;;6.68;1.70;;;15.70;87.60;;;;;;5053543;28;20468;-75
2021/05/24 08:36:59;;;;;;;1.77;0.80;;;15.70;87.30;;;;;;5053715;28;20041;-75
2021/05/24 08:39:25;;;;;;;3.75;1.15;;;15.90;88.20;;;;;;5053025;28;20473;-75
2021/05/24 08:41:53;;;;;;;1.75;0.68;;;15.90;89.20;;;;;;5053155;28;20050;-75
2021/05/24 08:44:19;;;;;;;4.95;0.98;;;16.00;87.40;;;;;;5053255;28;20102;-75
2021/05/24 08:46:45;;;;;;;3.33;0.90;;;15.90;88.90;;;;;;5051958;28;20040;-75
2021/05/24 08:49:10;;;;;;;2.95;0.77;;;15.90;87.60;;;;;;5052906;28;20044;-75
2021/05/24 08:51:36;;;;;;;2.00;0.95;;;15.90;85.30;;;;;;5053680;28;20384;-74
2021/05/24 08:54:04;;;;;;;1.63;0.90;;;16.00;85.50;;;;;;5053232;28;20033;-75
2021/05/24 08:56:30;;;;;;;5.30;1.02;;;16.00;84.50;;;;;;5053008;28;20037;-75
2021/05/24 08:59:00;;;;;;;3.55;1.00;;;15.80;86.80;;;;;;5052654;28;20098;-75
2021/05/24 09:01:27;;;;;;;3.88;1.40;;;15.70;88.80;;;;;;5053212;28;20041;-75
2021/05/24 09:03:58;;;;;;;3.63;0.98;;;15.30;90.40;;;;;;5052946;28;20481;-75
2021/05/24 09:06:39;;;;;;;4.20;1.48;;;15.10;91.10;;;;;;5053461;28;20112;-75
2021/05/24 09:09:11;;;;;;;2.55;1.33;;;14.90;91.60;;;;;;5053202;28;20041;-75
2021/05/24 09:11:37;;;;;;;3.33;1.30;;;14.60;92.00;;;;;;5056753;28;20040;-75
2021/05/24 09:14:15;;;;;;;2.72;1.30;;;14.40;92.60;;;;;;5056919;28;20078;-74
2021/05/24 09:16:40;;;;;;;3.13;1.17;;;14.30;93.20;;;;;;5057285;28;20041;-75
2021/05/24 09:19:20;;;;;;;1.13;1.02;;;14.20;93.40;;;;;;5057165;28;20037;-75
2021/05/24 09:21:51;;;;;;;2.20;1.08;;;14.30;93.80;;;;;;5056760;28;20123;-75
2021/05/24 09:24:30;;;;;;;3.45;1.10;;;14.40;94.10;;;;;;5056662;28;20593;-74
2021/05/24 09:27:07;;;;;;;3.17;1.30;;;14.40;93.10;;;;;;5038765;28;20501;-75
2021/05/24 09:29:47;;;;;;;2.38;1.27;;;14.40;92.80;;;;;;5056244;28;20458;-75
2021/05/24 09:32:24;;;;;;;2.63;0.95;;;14.40;93.20;;;;;;5055516;28;20413;-75
2021/05/24 09:34:51;;;;;;;2.50;0.90;;;14.40;93.40;;;;;;5054987;28;20037;-75
2021/05/24 09:37:18;;;;;;;2.58;1.00;;;14.30;92.60;;;;;;5056314;28;20041;-75
2021/05/24 09:39:45;;;;;;;1.92;0.90;;;14.40;92.60;;;;;;5055473;28;20041;-74
2021/05/24 09:42:17;;;;;;;1.67;0.80;;;14.30;92.90;;;;;;5056266;28;20044;-75
2021/05/24 09:44:46;;;;;;;1.23;0.80;;;14.30;93.00;;;;;;5056328;28;20116;-75
2021/05/24 09:47:13;;;;;;;3.00;0.88;;;14.20;92.30;;;;;;5056422;28;20116;-75
2021/05/24 09:49:39;;;;;;;3.13;1.63;;;14.00;92.30;;;;;;5055591;28;20069;-74
2021/05/24 09:52:05;;;;;;;2.17;1.05;;;13.90;92.60;;;;;;5055948;28;20481;-75
2021/05/24 09:54:37;;;;;;;2.00;1.20;;;13.80;92.50;;;;;;5056588;28;20042;-74
2021/05/24 09:57:09;;;;;;;1.45;0.90;;;13.70;93.30;;;;;;5056086;28;20040;-74
2021/05/24 09:59:35;;;;;;;5.00;1.17;;;13.70;93.30;;;;;;5055901;28;20175;-74
2021/05/24 10:02:04;;;;;;;2.13;1.00;;;13.60;93.80;;;;;;5056572;28;20060;-75
2021/05/24 10:04:33;;;;;;;2.50;1.25;;;13.60;94.10;;;;;;5056253;28;20076;-74
2021/05/24 10:07:01;;;;;;;3.58;1.10;;;13.50;94.30;;;;;;5056411;28;20040;-74
2021/05/24 10:09:31;;;;;;;1.73;1.00;;;13.40;94.60;;;;;;5056039;28;20040;-75
2021/05/24 10:11:59;;;;;;;3.67;1.40;;;13.40;94.90;;;;;;5056312;28;20053;-75
2021/05/24 10:14:26;;;;;;;4.57;1.60;;;13.30;95.10;;;;;;5056283;28;20041;-75
2021/05/24 10:17:00;;;;;;;3.05;1.30;;;13.20;95.30;;;;;;5055706;28;20029;-75
2021/05/24 10:19:26;;;;;;;2.28;1.25;;;13.20;95.30;;;;;;5055146;28;20044;-75
2021/05/24 10:21:52;;;;;;;3.40;1.40;;;13.10;95.70;;;;;;5054253;28;20037;-75
2021/05/24 10:24:24;;;;;;;6.32;1.65;;;13.10;95.60;;;;;;5055453;28;20062;-75
2021/05/24 10:26:56;;;;;;;3.03;1.40;;;13.10;95.60;;;;;;5055980;28;20044;-75
2021/05/24 10:29:23;;;;;;;2.65;1.05;;;13.10;95.30;;;;;;5055176;28;20037;-75
2021/05/24 10:31:50;;;;;;;3.53;1.23;;;13.00;95.60;;;;;;5055996;28;20045;-74
2021/05/24 10:34:21;;;;;;;4.35;1.40;;;13.00;95.80;;;;;;5055838;28;20045;-75
2021/05/24 10:37:06;;;;;;;3.72;1.35;;;13.00;95.80;;;;;;5055340;28;20037;-75
2021/05/24 10:39:44;;;;;;;2.75;1.40;;;12.90;95.90;;;;;;5055399;28;20068;-75
2021/05/24 10:42:12;;;;;;;6.40;1.23;;;12.90;96.10;;;;;;5055164;28;20041;-75
2021/05/24 10:44:43;;;;;;;2.85;1.33;;;12.90;96.20;;;;;;5055097;28;20473;-75
2021/05/24 10:47:26;;;;;;;4.38;1.70;;;12.90;96.50;;;;;;5055239;28;20045;-75
2021/05/24 10:50:00;;;;;;;3.27;1.10;;;12.90;96.70;;;;;;5054691;28;20041;-75
2021/05/24 10:52:27;;;;;;;2.83;1.50;;;13.00;97.30;;;;;;5055767;28;20275;-75
2021/05/24 10:54:53;;;;;;;3.30;1.80;;;13.10;97.30;;;;;;5055616;28;20036;-75
2021/05/24 10:57:20;;;;;;;2.90;1.35;;;13.30;97.40;;;;;;5037118;28;20033;-75
2021/05/24 10:59:47;;;;;;;2.65;1.20;;;13.50;97.00;;;;;;5054804;28;20465;-75
2021/05/24 11:02:36;;;;;;;1.88;1.10;;;13.70;96.30;;;;;;5055090;28;20037;-75
2021/05/24 11:05:28;;;;;;;3.08;1.45;;;13.90;96.40;;;;;;5054786;28;20546;-75
2021/05/24 11:07:56;;;;;;;2.63;1.20;;;14.00;96.10;;;;;;5055317;28;20473;-75
2021/05/24 11:10:24;;;;;;;4.30;1.58;;;14.10;96.00;;;;;;5054326;28;20048;-75
2021/05/24 11:13:17;;;;;;;3.17;1.30;;;14.10;95.40;;;;;;5054647;28;20041;-74
2021/05/24 11:15:46;;;;;;;3.45;1.23;;;14.10;95.50;;;;;;5054448;28;20095;-75
2021/05/24 11:18:13;;;;;;;2.13;1.50;;;14.00;95.70;;;;;;5054618;28;20033;-75
2021/05/24 11:20:49;;;;;;;3.20;1.27;;;14.10;95.90;;;;;;5054049;28;20485;-75
2021/05/24 11:23:49;;;;;;;3.35;1.42;;;14.10;95.70;;;;;;5054808;28;20489;-75
2021/05/24 11:26:28;;;;;;;2.47;1.50;;;14.30;95.40;;;;;;5055153;28;20120;-75
2021/05/24 11:29:02;;;;;;;3.03;1.33;;;14.30;95.80;;;;;;5054524;28;20374;-75
2021/05/24 11:31:35;;;;;;;4.35;1.40;;;14.20;94.70;;;;;;5054728;28;20386;-75
2021/05/24 11:34:00;;;;;;;3.63;1.70;;;14.20;94.60;;;;;;5054043;28;20048;-75
2021/05/24 11:36:35;;;;;;;2.58;1.70;;;14.20;94.60;;;;;;5054062;28;20071;-75
2021/05/24 11:39:09;;;;;;;3.28;1.30;;;14.20;94.90;;;;;;5054236;28;20112;-75
2021/05/24 11:41:42;;;;;;;4.00;1.88;;;14.20;94.50;;;;;;5054203;28;20040;-75
2021/05/24 11:44:08;;;;;;;4.78;1.65;;;14.10;94.60;;;;;;5054513;28;20037;-75
2021/05/24 11:46:53;;;;;;;4.45;1.67;;;14.10;95.00;;;;;;5054205;28;20041;-75
2021/05/24 11:49:29;;;;;;;2.00;1.42;;;14.20;95.20;;;;;;5053984;28;20048;-75
2021/05/24 11:51:56;;;;;;;2.00;1.38;;;14.20;95.30;;;;;;5054060;28;20040;-75
2021/05/24 11:54:22;;;;;;;4.38;1.50;;;14.30;95.60;;;;;;5053977;28;20044;-75
2021/05/24 11:56:56;;;;;;;3.60;1.80;;;14.30;95.50;;;;;;5054146;28;20063;-75
2021/05/24 11:59:27;;;;;;;3.30;1.55;;;14.30;94.70;;;;;;5053348;28;20068;-75
2021/05/24 12:01:54;;;;;;;3.15;1.83;;;14.20;95.20;;;;;;5054088;28;20453;-75
2021/05/24 12:04:23;;;;;;;4.03;1.58;;;14.20;95.00;;;;;;5053639;28;20036;-75
2021/05/24 12:06:52;;;;;;;4.85;1.40;;;14.20;95.70;;;;;;5053634;28;20054;-75
2021/05/24 12:09:32;;;;;;;2.72;1.85;;;14.10;95.30;;;;;;5053245;28;20052;-75
2021/05/24 12:11:59;;;;;;;2.30;1.88;;;14.10;95.60;;;;;;5036245;28;20540;-75
2021/05/24 12:14:25;;;;;;;2.70;1.60;;;14.00;96.00;;;;;;5053871;28;20048;-75
2021/05/24 12:16:53;;;;;;;5.90;2.97;;;14.10;96.40;;;;;;5053946;28;20033;-75
2021/05/24 12:19:24;;;;;;;4.35;1.77;;;14.10;96.50;;;;;;5053308;28;20040;-75
2021/05/24 12:21:50;;;;;;;4.22;2.10;;;14.10;96.50;;;;;;5053698;28;20041;-75
2021/05/24 12:24:18;;;;;;;5.30;2.00;;;14.10;96.70;;;;;;5053321;28;20096;-75
2021/05/24 12:26:53;;;;;;;2.28;1.52;;;14.10;96.70;;;;;;5053969;28;20047;-75
2021/05/24 12:29:28;;;;;;;3.60;1.98;;;14.10;96.70;;;;;;5052972;28;20037;-75
2021/05/24 12:31:57;;;;;;;5.75;2.20;;;14.10;96.80;;;;;;5053638;28;20044;-75
2021/05/24 12:34:47;;;;;;;3.50;1.77;;;14.10;96.90;;;;;;5052875;28;20048;-75
2021/05/24 12:37:14;;;;;;;3.45;1.95;;;14.10;96.50;;;;;;5053862;28;20033;-75
2021/05/24 12:39:44;;;;;;;10.77;2.17;;;14.10;96.60;;;;;;5053089;28;20095;-75
2021/05/24 12:42:11;;;;;;;2.78;1.83;;;14.00;96.40;;;;;;5053164;28;20400;-75
2021/05/24 12:44:38;;;;;;;5.65;2.20;;;14.00;96.40;;;;;;5052371;28;20041;-75
2021/05/24 12:47:16;;;;;;;3.85;2.20;;;13.90;96.30;;;;;;5053329;28;20040;-75
2021/05/24 12:49:43;;;;;;;4.05;2.65;;;13.90;96.70;;;;;;5053013;28;20037;-75
2021/05/24 12:52:10;;;;;;;4.25;2.50;;;13.80;97.10;;;;;;5053509;28;20041;-75